sensor_id;sensor_type;location;lat;lon;timestamp;temperature;humidity
20839;DHT22;10580;51.092;6.828;2023-12-04T00:01:57;0.30;99.90
20839;DHT22;10580;51.092;6.828;2023-12-04T00:04:22;0.30;99.90
20839;DHT22;10580;51.092;6.828;2023-12-04T00:06:48;0.30;99.90
20839;DHT22;10580;51.092;6.828;2023-12-04T00:09:13;0.40;25.90
20839;DHT22;10580;51.092;6.828;2023-12-04T00:11:39;0.40;1.00
20839;DHT22;10580;51.092;6.828;2023-12-04T00:14:04;0.40;1.00
20839;DHT22;10580;51.092;6.828;2023-12-04T00:16:33;0.40;1.00
20839;DHT22;10580;51.092;6.828;2023-12-04T00:18:59;0.40;1.00
20839;DHT22;10580;51.092;6.828;2023-12-04T00:21:25;0.40;1.00
20839;DHT22;10580;51.092;6.828;2023-12-04T00:23:50;0.30;1.00
20839;DHT22;10580;51.092;6.828;2023-12-04T00:26:16;0.30;1.00
20839;DHT22;10580;51.092;6.828;2023-12-04T00:28:41;0.30;1.00
20839;DHT22;10580;51.092;6.828;2023-12-04T00:31:08;0.30;1.00
20839;DHT22;10580;51.092;6.828;2023-12-04T00:33:34;0.30;1.00
20839;DHT22;10580;51.092;6.828;2023-12-04T00:35:59;0.30;1.00
20839;DHT22;10580;51.092;6.828;2023-12-04T00:38:25;0.30;99.90
20839;DHT22;10580;51.092;6.828;2023-12-04T00:40:50;0.30;99.90
20839;DHT22;10580;51.092;6.828;2023-12-04T00:43:16;0.30;99.90
20839;DHT22;10580;51.092;6.828;2023-12-04T00:45:41;0.30;99.90
20839;DHT22;10580;51.092;6.828;2023-12-04T00:48:07;0.30;99.90
20839;DHT22;10580;51.092;6.828;2023-12-04T00:50:32;0.30;99.90
20839;DHT22;10580;51.092;6.828;2023-12-04T00:52:58;0.30;99.90
20839;DHT22;10580;51.092;6.828;2023-12-04T00:55:23;0.30;99.90
20839;DHT22;10580;51.092;6.828;2023-12-04T00:57:49;0.30;99.90
20839;DHT22;10580;51.092;6.828;2023-12-04T01:00:15;0.30;99.90
20839;DHT22;10580;51.092;6.828;2023-12-04T01:02:41;0.30;1.00
20839;DHT22;10580;51.092;6.828;2023-12-04T01:05:07;0.40;1.00
20839;DHT22;10580;51.092;6.828;2023-12-04T01:07:32;0.30;1.00
20839;DHT22;10580;51.092;6.828;2023-12-04T01:09:58;0.30;1.00
20839;DHT22;10580;51.092;6.828;2023-12-04T01:12:23;0.30;1.00
20839;DHT22;10580;51.092;6.828;2023-12-04T01:14:49;0.30;1.00
20839;DHT22;10580;51.092;6.828;2023-12-04T01:17:14;0.30;1.00
20839;DHT22;10580;51.092;6.828;2023-12-04T01:19:40;0.30;1.00
20839;DHT22;10580;51.092;6.828;2023-12-04T01:22:06;0.20;1.00
20839;DHT22;10580;51.092;6.828;2023-12-04T01:24:32;0.20;1.00
20839;DHT22;10580;51.092;6.828;2023-12-04T01:26:58;0.20;1.00
20839;DHT22;10580;51.092;6.828;2023-12-04T01:29:23;0.20;1.00
20839;DHT22;10580;51.092;6.828;2023-12-04T01:31:49;0.20;1.00
20839;DHT22;10580;51.092;6.828;2023-12-04T01:34:14;0.20;1.00
20839;DHT22;10580;51.092;6.828;2023-12-04T01:36:40;0.20;1.00
20839;DHT22;10580;51.092;6.828;2023-12-04T01:39:06;0.20;1.00
20839;DHT22;10580;51.092;6.828;2023-12-04T01:41:32;0.20;1.00
20839;DHT22;10580;51.092;6.828;2023-12-04T01:43:57;0.20;1.00
20839;DHT22;10580;51.092;6.828;2023-12-04T01:46:23;0.20;1.00
20839;DHT22;10580;51.092;6.828;2023-12-04T01:48:49;0.20;1.00
20839;DHT22;10580;51.092;6.828;2023-12-04T01:51:17;0.20;1.00
20839;DHT22;10580;51.092;6.828;2023-12-04T01:53:43;0.20;1.00
20839;DHT22;10580;51.092;6.828;2023-12-04T01:56:10;0.20;1.00
20839;DHT22;10580;51.092;6.828;2023-12-04T01:58:36;0.20;1.00
20839;DHT22;10580;51.092;6.828;2023-12-04T02:01:03;0.20;1.00
20839;DHT22;10580;51.092;6.828;2023-12-04T02:03:29;0.20;1.00
20839;DHT22;10580;51.092;6.828;2023-12-04T02:05:59;0.20;99.90
20839;DHT22;10580;51.092;6.828;2023-12-04T02:08:26;0.30;99.90
20839;DHT22;10580;51.092;6.828;2023-12-04T02:10:52;0.30;99.90
20839;DHT22;10580;51.092;6.828;2023-12-04T02:13:17;0.30;99.90
20839;DHT22;10580;51.092;6.828;2023-12-04T02:15:44;0.30;99.90
20839;DHT22;10580;51.092;6.828;2023-12-04T02:18:10;0.30;1.00
20839;DHT22;10580;51.092;6.828;2023-12-04T02:20:36;0.30;1.00
20839;DHT22;10580;51.092;6.828;2023-12-04T02:23:02;0.30;1.00
20839;DHT22;10580;51.092;6.828;2023-12-04T02:25:29;0.20;99.90
20839;DHT22;10580;51.092;6.828;2023-12-04T02:27:56;0.30;99.90
20839;DHT22;10580;51.092;6.828;2023-12-04T02:30:24;0.30;45.70
20839;DHT22;10580;51.092;6.828;2023-12-04T02:32:52;0.30;1.00
20839;DHT22;10580;51.092;6.828;2023-12-04T02:35:21;0.30;1.00
20839;DHT22;10580;51.092;6.828;2023-12-04T02:37:47;0.20;1.00
20839;DHT22;10580;51.092;6.828;2023-12-04T02:40:14;0.20;1.00
20839;DHT22;10580;51.092;6.828;2023-12-04T02:42:40;0.20;1.00
20839;DHT22;10580;51.092;6.828;2023-12-04T02:45:06;0.30;1.00
20839;DHT22;10580;51.092;6.828;2023-12-04T02:47:31;0.30;1.00
20839;DHT22;10580;51.092;6.828;2023-12-04T02:49:57;0.20;99.90
20839;DHT22;10580;51.092;6.828;2023-12-04T02:52:22;0.20;99.90
20839;DHT22;10580;51.092;6.828;2023-12-04T02:54:48;0.20;99.90
20839;DHT22;10580;51.092;6.828;2023-12-04T02:57:14;0.20;99.90
20839;DHT22;10580;51.092;6.828;2023-12-04T02:59:39;0.20;96.50
20839;DHT22;10580;51.092;6.828;2023-12-04T03:02:05;0.20;1.00
20839;DHT22;10580;51.092;6.828;2023-12-04T03:04:31;0.20;15.20
20839;DHT22;10580;51.092;6.828;2023-12-04T03:06:57;0.20;1.00
20839;DHT22;10580;51.092;6.828;2023-12-04T03:09:22;0.20;1.00
20839;DHT22;10580;51.092;6.828;2023-12-04T03:11:48;0.20;1.00
20839;DHT22;10580;51.092;6.828;2023-12-04T03:14:13;0.20;1.00
20839;DHT22;10580;51.092;6.828;2023-12-04T03:16:40;0.20;1.00
20839;DHT22;10580;51.092;6.828;2023-12-04T03:19:05;0.20;1.00
20839;DHT22;10580;51.092;6.828;2023-12-04T03:21:31;0.20;1.00
20839;DHT22;10580;51.092;6.828;2023-12-04T03:23:56;0.20;1.00
20839;DHT22;10580;51.092;6.828;2023-12-04T03:26:22;0.20;1.00
20839;DHT22;10580;51.092;6.828;2023-12-04T03:28:48;0.20;1.00
20839;DHT22;10580;51.092;6.828;2023-12-04T03:31:13;0.30;99.90
20839;DHT22;10580;51.092;6.828;2023-12-04T03:33:39;0.20;1.00
20839;DHT22;10580;51.092;6.828;2023-12-04T03:36:05;0.30;1.00
20839;DHT22;10580;51.092;6.828;2023-12-04T03:38:30;0.20;1.00
20839;DHT22;10580;51.092;6.828;2023-12-04T03:40:56;0.30;99.90
20839;DHT22;10580;51.092;6.828;2023-12-04T03:43:21;0.30;99.90
20839;DHT22;10580;51.092;6.828;2023-12-04T03:45:47;0.20;99.90
20839;DHT22;10580;51.092;6.828;2023-12-04T03:48:13;0.30;1.00
20839;DHT22;10580;51.092;6.828;2023-12-04T03:50:38;0.30;1.00
20839;DHT22;10580;51.092;6.828;2023-12-04T03:53:04;0.30;1.00
20839;DHT22;10580;51.092;6.828;2023-12-04T03:55:29;0.30;1.00
20839;DHT22;10580;51.092;6.828;2023-12-04T03:57:55;0.30;1.00
20839;DHT22;10580;51.092;6.828;2023-12-04T04:00:22;0.30;1.00
20839;DHT22;10580;51.092;6.828;2023-12-04T04:02:48;0.30;1.00
20839;DHT22;10580;51.092;6.828;2023-12-04T04:05:14;0.30;99.90
20839;DHT22;10580;51.092;6.828;2023-12-04T04:07:40;0.30;1.00
20839;DHT22;10580;51.092;6.828;2023-12-04T04:10:06;0.30;99.90
20839;DHT22;10580;51.092;6.828;2023-12-04T04:12:32;0.30;99.90
20839;DHT22;10580;51.092;6.828;2023-12-04T04:14:58;0.40;99.90
20839;DHT22;10580;51.092;6.828;2023-12-04T04:17:24;0.30;99.90
20839;DHT22;10580;51.092;6.828;2023-12-04T04:19:52;0.30;99.90
20839;DHT22;10580;51.092;6.828;2023-12-04T04:22:21;0.30;99.90
20839;DHT22;10580;51.092;6.828;2023-12-04T04:24:48;0.30;99.90
20839;DHT22;10580;51.092;6.828;2023-12-04T04:27:13;0.30;99.90
20839;DHT22;10580;51.092;6.828;2023-12-04T04:29:39;0.30;99.90
20839;DHT22;10580;51.092;6.828;2023-12-04T04:32:05;0.30;99.90
20839;DHT22;10580;51.092;6.828;2023-12-04T04:34:31;0.30;99.90
20839;DHT22;10580;51.092;6.828;2023-12-04T04:36:56;0.30;99.90
20839;DHT22;10580;51.092;6.828;2023-12-04T04:39:22;0.30;99.90
20839;DHT22;10580;51.092;6.828;2023-12-04T04:41:47;0.30;99.90
20839;DHT22;10580;51.092;6.828;2023-12-04T04:44:13;0.30;99.90
20839;DHT22;10580;51.092;6.828;2023-12-04T04:46:39;0.30;99.90
20839;DHT22;10580;51.092;6.828;2023-12-04T04:49:04;0.30;99.90
20839;DHT22;10580;51.092;6.828;2023-12-04T04:51:33;0.30;99.90
20839;DHT22;10580;51.092;6.828;2023-12-04T04:54:00;0.30;99.90
20839;DHT22;10580;51.092;6.828;2023-12-04T04:56:25;0.40;99.90
20839;DHT22;10580;51.092;6.828;2023-12-04T04:58:51;0.30;99.90
20839;DHT22;10580;51.092;6.828;2023-12-04T05:01:16;0.30;99.90
20839;DHT22;10580;51.092;6.828;2023-12-04T05:03:42;0.30;99.90
20839;DHT22;10580;51.092;6.828;2023-12-04T05:06:08;0.30;99.90
20839;DHT22;10580;51.092;6.828;2023-12-04T05:08:34;0.30;99.90
20839;DHT22;10580;51.092;6.828;2023-12-04T05:10:59;0.30;99.90
20839;DHT22;10580;51.092;6.828;2023-12-04T05:13:25;0.30;1.00
20839;DHT22;10580;51.092;6.828;2023-12-04T05:15:50;0.30;99.90
20839;DHT22;10580;51.092;6.828;2023-12-04T05:18:16;0.30;99.90
20839;DHT22;10580;51.092;6.828;2023-12-04T05:20:41;0.30;99.90
20839;DHT22;10580;51.092;6.828;2023-12-04T05:23:07;0.30;99.90
20839;DHT22;10580;51.092;6.828;2023-12-04T05:25:32;0.20;1.00
20839;DHT22;10580;51.092;6.828;2023-12-04T05:27:58;0.20;1.00
20839;DHT22;10580;51.092;6.828;2023-12-04T05:30:23;0.20;1.00
20839;DHT22;10580;51.092;6.828;2023-12-04T05:32:49;0.20;1.00
20839;DHT22;10580;51.092;6.828;2023-12-04T05:35:15;0.20;1.00
20839;DHT22;10580;51.092;6.828;2023-12-04T05:37:42;0.20;1.00
20839;DHT22;10580;51.092;6.828;2023-12-04T05:40:07;0.20;1.00
20839;DHT22;10580;51.092;6.828;2023-12-04T05:42:33;0.20;1.00
20839;DHT22;10580;51.092;6.828;2023-12-04T05:44:59;0.20;1.00
20839;DHT22;10580;51.092;6.828;2023-12-04T05:47:26;0.20;1.00
20839;DHT22;10580;51.092;6.828;2023-12-04T05:49:51;0.20;1.00
20839;DHT22;10580;51.092;6.828;2023-12-04T05:52:17;0.20;44.40
20839;DHT22;10580;51.092;6.828;2023-12-04T05:54:43;0.20;15.20
20839;DHT22;10580;51.092;6.828;2023-12-04T05:57:09;0.20;50.80
20839;DHT22;10580;51.092;6.828;2023-12-04T05:59:34;0.20;99.90
20839;DHT22;10580;51.092;6.828;2023-12-04T06:02:01;0.20;1.00
20839;DHT22;10580;51.092;6.828;2023-12-04T06:04:26;0.20;1.00
20839;DHT22;10580;51.092;6.828;2023-12-04T06:06:52;0.30;99.90
20839;DHT22;10580;51.092;6.828;2023-12-04T06:09:17;0.30;57.50
20839;DHT22;10580;51.092;6.828;2023-12-04T06:11:43;0.30;99.90
20839;DHT22;10580;51.092;6.828;2023-12-04T06:14:09;0.30;99.90
20839;DHT22;10580;51.092;6.828;2023-12-04T06:16:36;0.20;99.90
20839;DHT22;10580;51.092;6.828;2023-12-04T06:19:01;0.20;99.90
20839;DHT22;10580;51.092;6.828;2023-12-04T06:21:28;0.30;99.90
20839;DHT22;10580;51.092;6.828;2023-12-04T06:23:54;0.30;99.90
20839;DHT22;10580;51.092;6.828;2023-12-04T06:26:19;0.30;99.90
20839;DHT22;10580;51.092;6.828;2023-12-04T06:28:45;0.20;99.90
20839;DHT22;10580;51.092;6.828;2023-12-04T06:31:12;0.20;99.90
20839;DHT22;10580;51.092;6.828;2023-12-04T06:33:37;0.20;99.90
20839;DHT22;10580;51.092;6.828;2023-12-04T06:36:04;0.20;99.90
20839;DHT22;10580;51.092;6.828;2023-12-04T06:38:32;0.20;99.90
20839;DHT22;10580;51.092;6.828;2023-12-04T06:41:01;0.20;99.90
20839;DHT22;10580;51.092;6.828;2023-12-04T06:43:26;0.20;99.90
20839;DHT22;10580;51.092;6.828;2023-12-04T06:45:53;0.20;99.90
20839;DHT22;10580;51.092;6.828;2023-12-04T06:48:22;0.20;99.90
20839;DHT22;10580;51.092;6.828;2023-12-04T06:50:48;0.20;99.90
20839;DHT22;10580;51.092;6.828;2023-12-04T06:53:14;0.20;99.90
20839;DHT22;10580;51.092;6.828;2023-12-04T06:55:42;0.20;99.90
20839;DHT22;10580;51.092;6.828;2023-12-04T06:58:08;0.20;99.90
20839;DHT22;10580;51.092;6.828;2023-12-04T07:00:33;0.20;24.10
20839;DHT22;10580;51.092;6.828;2023-12-04T07:02:59;0.20;1.00
20839;DHT22;10580;51.092;6.828;2023-12-04T07:05:24;0.20;1.00
20839;DHT22;10580;51.092;6.828;2023-12-04T07:07:50;0.20;1.00
20839;DHT22;10580;51.092;6.828;2023-12-04T07:10:15;0.20;24.20
20839;DHT22;10580;51.092;6.828;2023-12-04T07:12:41;0.20;1.00
20839;DHT22;10580;51.092;6.828;2023-12-04T07:15:08;0.20;48.70
20839;DHT22;10580;51.092;6.828;2023-12-04T07:17:35;0.20;93.00
20839;DHT22;10580;51.092;6.828;2023-12-04T07:20:00;0.20;15.00
20839;DHT22;10580;51.092;6.828;2023-12-04T07:22:26;0.20;22.10
20839;DHT22;10580;51.092;6.828;2023-12-04T07:24:51;0.20;46.90
20839;DHT22;10580;51.092;6.828;2023-12-04T07:27:17;0.20;1.00
20839;DHT22;10580;51.092;6.828;2023-12-04T07:29:43;0.20;1.00
20839;DHT22;10580;51.092;6.828;2023-12-04T07:32:08;0.30;1.00
20839;DHT22;10580;51.092;6.828;2023-12-04T07:34:34;0.30;1.00
20839;DHT22;10580;51.092;6.828;2023-12-04T07:36:59;0.30;1.00
20839;DHT22;10580;51.092;6.828;2023-12-04T07:39:25;0.40;1.00
20839;DHT22;10580;51.092;6.828;2023-12-04T07:41:51;0.40;1.00
20839;DHT22;10580;51.092;6.828;2023-12-04T07:44:16;0.40;1.00
20839;DHT22;10580;51.092;6.828;2023-12-04T07:46:42;0.40;1.00
20839;DHT22;10580;51.092;6.828;2023-12-04T07:49:07;0.40;1.00
20839;DHT22;10580;51.092;6.828;2023-12-04T07:51:33;0.50;1.00
20839;DHT22;10580;51.092;6.828;2023-12-04T07:53:58;0.50;1.00
20839;DHT22;10580;51.092;6.828;2023-12-04T07:56:24;0.60;1.00
20839;DHT22;10580;51.092;6.828;2023-12-04T07:58:49;0.60;99.90
20839;DHT22;10580;51.092;6.828;2023-12-04T08:01:15;0.70;99.90
20839;DHT22;10580;51.092;6.828;2023-12-04T08:03:41;0.80;1.00
20839;DHT22;10580;51.092;6.828;2023-12-04T08:06:07;0.80;1.00
20839;DHT22;10580;51.092;6.828;2023-12-04T08:08:32;0.80;1.00
20839;DHT22;10580;51.092;6.828;2023-12-04T08:10:58;0.80;1.00
20839;DHT22;10580;51.092;6.828;2023-12-04T08:13:23;0.90;99.90
20839;DHT22;10580;51.092;6.828;2023-12-04T08:15:49;0.90;1.00
20839;DHT22;10580;51.092;6.828;2023-12-04T08:18:14;0.90;1.00
20839;DHT22;10580;51.092;6.828;2023-12-04T08:20:40;0.90;1.00
20839;DHT22;10580;51.092;6.828;2023-12-04T08:23:05;0.90;15.10
20839;DHT22;10580;51.092;6.828;2023-12-04T08:25:31;0.90;1.00
20839;DHT22;10580;51.092;6.828;2023-12-04T08:27:58;0.90;1.00
20839;DHT22;10580;51.092;6.828;2023-12-04T08:30:25;0.90;1.00
20839;DHT22;10580;51.092;6.828;2023-12-04T08:32:52;1.00;1.00
20839;DHT22;10580;51.092;6.828;2023-12-04T08:35:18;1.00;1.00
20839;DHT22;10580;51.092;6.828;2023-12-04T08:37:43;1.00;32.70
20839;DHT22;10580;51.092;6.828;2023-12-04T08:40:09;1.00;1.00
20839;DHT22;10580;51.092;6.828;2023-12-04T08:42:35;1.00;1.00
20839;DHT22;10580;51.092;6.828;2023-12-04T08:45:01;1.00;1.00
20839;DHT22;10580;51.092;6.828;2023-12-04T08:47:26;1.00;99.90
20839;DHT22;10580;51.092;6.828;2023-12-04T08:49:52;1.00;1.00
20839;DHT22;10580;51.092;6.828;2023-12-04T08:52:18;1.00;1.00
20839;DHT22;10580;51.092;6.828;2023-12-04T08:54:44;1.00;1.00
20839;DHT22;10580;51.092;6.828;2023-12-04T08:57:09;1.00;1.00
20839;DHT22;10580;51.092;6.828;2023-12-04T08:59:35;1.00;1.00
20839;DHT22;10580;51.092;6.828;2023-12-04T09:02:00;1.10;40.40
20839;DHT22;10580;51.092;6.828;2023-12-04T09:04:30;1.10;1.00
20839;DHT22;10580;51.092;6.828;2023-12-04T09:06:57;1.10;99.90
20839;DHT22;10580;51.092;6.828;2023-12-04T09:09:22;1.10;1.00
20839;DHT22;10580;51.092;6.828;2023-12-04T09:11:48;1.10;1.00
20839;DHT22;10580;51.092;6.828;2023-12-04T09:14:13;1.10;99.90
20839;DHT22;10580;51.092;6.828;2023-12-04T09:16:39;1.10;1.00
20839;DHT22;10580;51.092;6.828;2023-12-04T09:19:05;1.20;99.90
20839;DHT22;10580;51.092;6.828;2023-12-04T09:21:31;1.20;99.90
20839;DHT22;10580;51.092;6.828;2023-12-04T09:23:56;1.20;99.90
20839;DHT22;10580;51.092;6.828;2023-12-04T09:26:22;1.20;99.90
20839;DHT22;10580;51.092;6.828;2023-12-04T09:28:47;1.20;1.00
20839;DHT22;10580;51.092;6.828;2023-12-04T09:31:13;1.20;99.90
20839;DHT22;10580;51.092;6.828;2023-12-04T09:33:39;1.20;1.00
20839;DHT22;10580;51.092;6.828;2023-12-04T09:36:05;1.20;1.00
20839;DHT22;10580;51.092;6.828;2023-12-04T09:38:30;1.20;99.90
20839;DHT22;10580;51.092;6.828;2023-12-04T09:40:59;1.20;99.90
20839;DHT22;10580;51.092;6.828;2023-12-04T09:43:28;1.30;1.00
20839;DHT22;10580;51.092;6.828;2023-12-04T09:45:54;1.30;99.90
20839;DHT22;10580;51.092;6.828;2023-12-04T09:48:20;1.30;1.00
20839;DHT22;10580;51.092;6.828;2023-12-04T09:50:47;1.30;99.90
20839;DHT22;10580;51.092;6.828;2023-12-04T09:53:13;1.40;1.00
20839;DHT22;10580;51.092;6.828;2023-12-04T09:55:39;1.40;1.00
20839;DHT22;10580;51.092;6.828;2023-12-04T09:58:05;1.50;99.90
20839;DHT22;10580;51.092;6.828;2023-12-04T10:00:32;1.50;70.40
20839;DHT22;10580;51.092;6.828;2023-12-04T10:02:58;1.60;99.90
20839;DHT22;10580;51.092;6.828;2023-12-04T10:05:25;1.60;99.90
20839;DHT22;10580;51.092;6.828;2023-12-04T10:07:50;1.60;99.90
20839;DHT22;10580;51.092;6.828;2023-12-04T10:10:16;1.70;1.00
20839;DHT22;10580;51.092;6.828;2023-12-04T10:12:43;1.70;99.90
20839;DHT22;10580;51.092;6.828;2023-12-04T10:15:11;1.70;1.00
20839;DHT22;10580;51.092;6.828;2023-12-04T10:17:37;1.70;1.00
20839;DHT22;10580;51.092;6.828;2023-12-04T10:20:11;1.70;99.90
20839;DHT22;10580;51.092;6.828;2023-12-04T10:22:59;1.70;1.00
20839;DHT22;10580;51.092;6.828;2023-12-04T10:25:26;1.70;1.00
20839;DHT22;10580;51.092;6.828;2023-12-04T10:27:54;1.70;99.90
20839;DHT22;10580;51.092;6.828;2023-12-04T10:30:27;1.70;63.20
20839;DHT22;10580;51.092;6.828;2023-12-04T10:33:04;1.70;1.00
20839;DHT22;10580;51.092;6.828;2023-12-04T10:35:31;1.70;1.00
20839;DHT22;10580;51.092;6.828;2023-12-04T10:37:58;1.70;1.00
20839;DHT22;10580;51.092;6.828;2023-12-04T10:40:29;1.70;1.00
20839;DHT22;10580;51.092;6.828;2023-12-04T10:43:11;1.70;1.00
20839;DHT22;10580;51.092;6.828;2023-12-04T10:45:36;1.80;1.00
20839;DHT22;10580;51.092;6.828;2023-12-04T10:48:03;1.80;1.00
20839;DHT22;10580;51.092;6.828;2023-12-04T10:50:33;1.80;1.00
20839;DHT22;10580;51.092;6.828;2023-12-04T10:53:04;1.80;1.00
20839;DHT22;10580;51.092;6.828;2023-12-04T10:55:33;1.80;1.00
20839;DHT22;10580;51.092;6.828;2023-12-04T10:58:05;1.80;1.00
20839;DHT22;10580;51.092;6.828;2023-12-04T11:00:36;1.80;1.00
20839;DHT22;10580;51.092;6.828;2023-12-04T11:03:07;1.70;1.00
20839;DHT22;10580;51.092;6.828;2023-12-04T11:05:39;1.70;1.00
20839;DHT22;10580;51.092;6.828;2023-12-04T11:08:16;1.70;1.00
20839;DHT22;10580;51.092;6.828;2023-12-04T11:10:54;1.60;1.00
20839;DHT22;10580;51.092;6.828;2023-12-04T11:15:52;1.50;99.90
20839;DHT22;10580;51.092;6.828;2023-12-04T11:18:23;1.40;1.00
20839;DHT22;10580;51.092;6.828;2023-12-04T11:20:54;1.30;1.00
20839;DHT22;10580;51.092;6.828;2023-12-04T11:23:22;1.30;75.30
20839;DHT22;10580;51.092;6.828;2023-12-04T11:25:49;1.30;1.00
20839;DHT22;10580;51.092;6.828;2023-12-04T11:28:15;1.30;1.00
20839;DHT22;10580;51.092;6.828;2023-12-04T11:30:41;1.30;99.90
20839;DHT22;10580;51.092;6.828;2023-12-04T11:33:09;1.30;1.00
20839;DHT22;10580;51.092;6.828;2023-12-04T11:35:38;1.30;1.00
20839;DHT22;10580;51.092;6.828;2023-12-04T11:38:05;1.30;1.00
20839;DHT22;10580;51.092;6.828;2023-12-04T11:40:32;1.30;61.50
20839;DHT22;10580;51.092;6.828;2023-12-04T11:42:58;1.40;99.90
20839;DHT22;10580;51.092;6.828;2023-12-04T11:45:23;1.50;1.00
20839;DHT22;10580;51.092;6.828;2023-12-04T11:47:58;1.40;1.00
20839;DHT22;10580;51.092;6.828;2023-12-04T11:50:26;1.40;1.00
20839;DHT22;10580;51.092;6.828;2023-12-04T11:52:53;1.30;1.00
20839;DHT22;10580;51.092;6.828;2023-12-04T11:55:23;1.50;99.90
20839;DHT22;10580;51.092;6.828;2023-12-04T11:57:51;1.50;99.90
20839;DHT22;10580;51.092;6.828;2023-12-04T12:00:21;1.50;1.00
20839;DHT22;10580;51.092;6.828;2023-12-04T12:05:23;1.40;1.00
20839;DHT22;10580;51.092;6.828;2023-12-04T12:07:49;1.30;1.00
20839;DHT22;10580;51.092;6.828;2023-12-04T12:10:15;1.20;56.30
20839;DHT22;10580;51.092;6.828;2023-12-04T12:12:43;1.10;99.90
20839;DHT22;10580;51.092;6.828;2023-12-04T12:15:12;1.10;99.90
20839;DHT22;10580;51.092;6.828;2023-12-04T12:17:39;1.10;99.90
20839;DHT22;10580;51.092;6.828;2023-12-04T12:20:06;1.00;99.90
20839;DHT22;10580;51.092;6.828;2023-12-04T12:22:37;0.90;99.90
20839;DHT22;10580;51.092;6.828;2023-12-04T12:25:07;0.90;1.00
20839;DHT22;10580;51.092;6.828;2023-12-04T12:27:33;1.00;1.00
20839;DHT22;10580;51.092;6.828;2023-12-04T12:29:59;0.90;1.00
20839;DHT22;10580;51.092;6.828;2023-12-04T12:32:26;1.00;1.00
20839;DHT22;10580;51.092;6.828;2023-12-04T12:34:52;1.10;1.00
20839;DHT22;10580;51.092;6.828;2023-12-04T12:37:18;1.00;1.00
20839;DHT22;10580;51.092;6.828;2023-12-04T12:39:44;1.00;1.00
20839;DHT22;10580;51.092;6.828;2023-12-04T12:42:09;0.90;1.00
20839;DHT22;10580;51.092;6.828;2023-12-04T12:44:39;0.90;1.00
20839;DHT22;10580;51.092;6.828;2023-12-04T12:47:06;0.90;1.00
20839;DHT22;10580;51.092;6.828;2023-12-04T12:49:32;0.90;1.00
20839;DHT22;10580;51.092;6.828;2023-12-04T12:51:59;0.90;1.00
20839;DHT22;10580;51.092;6.828;2023-12-04T12:54:25;0.80;1.00
20839;DHT22;10580;51.092;6.828;2023-12-04T12:56:51;0.80;1.00
20839;DHT22;10580;51.092;6.828;2023-12-04T12:59:16;0.90;1.00
20839;DHT22;10580;51.092;6.828;2023-12-04T13:01:43;0.90;1.00
20839;DHT22;10580;51.092;6.828;2023-12-04T13:04:08;0.90;1.00
20839;DHT22;10580;51.092;6.828;2023-12-04T13:06:38;0.90;1.00
20839;DHT22;10580;51.092;6.828;2023-12-04T13:09:04;0.90;1.00
20839;DHT22;10580;51.092;6.828;2023-12-04T13:11:32;0.90;1.00
20839;DHT22;10580;51.092;6.828;2023-12-04T13:13:57;0.90;1.00
20839;DHT22;10580;51.092;6.828;2023-12-04T13:16:23;1.00;1.00
20839;DHT22;10580;51.092;6.828;2023-12-04T13:18:48;1.00;1.00
20839;DHT22;10580;51.092;6.828;2023-12-04T13:21:14;1.00;1.00
20839;DHT22;10580;51.092;6.828;2023-12-04T13:23:40;1.00;1.00
20839;DHT22;10580;51.092;6.828;2023-12-04T13:26:05;1.00;1.00
20839;DHT22;10580;51.092;6.828;2023-12-04T13:28:31;1.00;1.00
20839;DHT22;10580;51.092;6.828;2023-12-04T13:30:57;1.00;1.00
20839;DHT22;10580;51.092;6.828;2023-12-04T13:33:22;1.00;1.00
20839;DHT22;10580;51.092;6.828;2023-12-04T13:35:48;1.00;1.00
20839;DHT22;10580;51.092;6.828;2023-12-04T13:38:13;1.00;1.00
20839;DHT22;10580;51.092;6.828;2023-12-04T13:40:40;1.00;1.00
20839;DHT22;10580;51.092;6.828;2023-12-04T13:43:05;1.00;1.00
20839;DHT22;10580;51.092;6.828;2023-12-04T13:45:51;1.00;1.00
20839;DHT22;10580;51.092;6.828;2023-12-04T13:48:18;1.00;1.00
20839;DHT22;10580;51.092;6.828;2023-12-04T13:50:46;1.00;1.00
20839;DHT22;10580;51.092;6.828;2023-12-04T13:53:12;1.00;1.00
20839;DHT22;10580;51.092;6.828;2023-12-04T13:55:40;1.10;1.00
20839;DHT22;10580;51.092;6.828;2023-12-04T13:58:31;1.10;1.00
20839;DHT22;10580;51.092;6.828;2023-12-04T14:01:02;1.10;1.00
20839;DHT22;10580;51.092;6.828;2023-12-04T14:03:34;1.10;1.00
20839;DHT22;10580;51.092;6.828;2023-12-04T14:06:01;1.10;1.00
20839;DHT22;10580;51.092;6.828;2023-12-04T14:08:26;1.10;1.00
20839;DHT22;10580;51.092;6.828;2023-12-04T14:10:52;1.10;1.00
20839;DHT22;10580;51.092;6.828;2023-12-04T14:13:17;1.20;1.00
20839;DHT22;10580;51.092;6.828;2023-12-04T14:15:44;1.20;1.00
20839;DHT22;10580;51.092;6.828;2023-12-04T14:18:09;1.20;1.00
20839;DHT22;10580;51.092;6.828;2023-12-04T14:20:35;1.20;1.00
20839;DHT22;10580;51.092;6.828;2023-12-04T14:23:01;1.30;1.00
20839;DHT22;10580;51.092;6.828;2023-12-04T14:25:26;1.30;1.00
20839;DHT22;10580;51.092;6.828;2023-12-04T14:27:52;1.30;1.00
20839;DHT22;10580;51.092;6.828;2023-12-04T14:30:17;1.40;1.00
20839;DHT22;10580;51.092;6.828;2023-12-04T14:32:43;1.40;99.90
20839;DHT22;10580;51.092;6.828;2023-12-04T14:35:08;1.40;99.90
20839;DHT22;10580;51.092;6.828;2023-12-04T14:37:34;1.40;99.90
20839;DHT22;10580;51.092;6.828;2023-12-04T14:40:01;1.40;99.90
20839;DHT22;10580;51.092;6.828;2023-12-04T14:42:27;1.40;99.90
20839;DHT22;10580;51.092;6.828;2023-12-04T14:44:52;1.40;99.90
20839;DHT22;10580;51.092;6.828;2023-12-04T14:47:18;1.40;99.90
20839;DHT22;10580;51.092;6.828;2023-12-04T14:49:44;1.40;99.90
20839;DHT22;10580;51.092;6.828;2023-12-04T14:52:09;1.40;99.90
20839;DHT22;10580;51.092;6.828;2023-12-04T14:54:36;1.40;99.90
20839;DHT22;10580;51.092;6.828;2023-12-04T14:57:19;1.40;99.90
20839;DHT22;10580;51.092;6.828;2023-12-04T14:59:45;1.50;99.90
20839;DHT22;10580;51.092;6.828;2023-12-04T15:02:29;1.50;99.90
20839;DHT22;10580;51.092;6.828;2023-12-04T15:04:58;1.50;99.90
20839;DHT22;10580;51.092;6.828;2023-12-04T15:07:30;1.50;99.90
20839;DHT22;10580;51.092;6.828;2023-12-04T15:10:13;1.50;99.90
20839;DHT22;10580;51.092;6.828;2023-12-04T15:12:38;1.50;99.90
20839;DHT22;10580;51.092;6.828;2023-12-04T15:15:13;1.50;99.90
20839;DHT22;10580;51.092;6.828;2023-12-04T15:18:05;1.50;99.90
20839;DHT22;10580;51.092;6.828;2023-12-04T15:20:49;1.50;99.90
20839;DHT22;10580;51.092;6.828;2023-12-04T15:23:15;1.50;99.90
20839;DHT22;10580;51.092;6.828;2023-12-04T15:25:42;1.50;99.90
20839;DHT22;10580;51.092;6.828;2023-12-04T15:28:07;1.50;99.90
20839;DHT22;10580;51.092;6.828;2023-12-04T15:30:36;1.50;99.90
20839;DHT22;10580;51.092;6.828;2023-12-04T15:33:04;1.50;99.90
20839;DHT22;10580;51.092;6.828;2023-12-04T15:35:30;1.50;99.90
20839;DHT22;10580;51.092;6.828;2023-12-04T15:37:56;1.50;99.90
20839;DHT22;10580;51.092;6.828;2023-12-04T15:40:21;1.30;1.00
20839;DHT22;10580;51.092;6.828;2023-12-04T15:42:47;1.30;1.00
20839;DHT22;10580;51.092;6.828;2023-12-04T15:45:13;1.20;1.00
20839;DHT22;10580;51.092;6.828;2023-12-04T15:47:38;1.20;1.00
20839;DHT22;10580;51.092;6.828;2023-12-04T15:50:04;1.20;1.00
20839;DHT22;10580;51.092;6.828;2023-12-04T15:52:33;1.10;1.00
20839;DHT22;10580;51.092;6.828;2023-12-04T15:54:58;1.10;1.00
20839;DHT22;10580;51.092;6.828;2023-12-04T15:57:24;1.10;1.00